Impacts TAF Board
For situational awareness. Not to be used for flight planning purposes.
IDs:

KTUL - Tulsa Intl Arpt, OK, US

Issued at 1721 UTC 21 May 2022
Updated at 2112 UTC 21 May 2022
Potential Impact None Slight Moderate High
Time<<22/22Z 22/23Z 23/00Z 23/01Z 23/02Z 23/03Z 23/04Z 23/05Z 23/06Z 23/07Z 23/08Z 23/09Z 23/10Z
Type
VIS
CIG
Cover
FltCat
WX
WDir
WSpd
WGst
WSHgt
WSDir
WSSpd
R08/26
XWnd 0 0 0 0 0 0 0 0 0 0 0 0 0
HWnd 0 0 0 0 0 0 0 0 0 0 0 0 0
R18/36
XWnd 0 0 0 0 0 0 0 0 0 0 0 0 0
HWnd 0 0 0 0 0 0 0 0 0 0 0 0 0
Raw TAF
KTUL 211721Z 2118/2218 01014G22KT P6SM VCSH OVC015
  FM212300 01012G20KT P6SM OVC035
  FM220200 01007KT P6SM BKN050


METAR Board
Radar Display
Forecast Discussion
For situational awareness. Not to be used for flight planning purposes.